createdAt,value
2018-04-24T00:18:34.287Z,2.40
2018-04-24T00:19:08.000Z,1.75
2018-04-24T00:19:42.492Z,2.03
2018-04-24T00:20:16.222Z,2.03
2018-04-24T00:20:49.947Z,1.80
2018-04-24T00:21:23.672Z,1.90
2018-04-24T00:21:57.394Z,2.03
2018-04-24T00:22:31.116Z,2.00
2018-04-24T00:23:04.832Z,2.10
2018-04-24T00:23:38.603Z,1.95
2018-04-24T00:24:12.327Z,2.05
2018-04-24T00:24:46.807Z,1.83
2018-04-24T00:25:20.204Z,2.10
2018-04-24T00:25:55.420Z,2.08
2018-04-24T00:26:29.132Z,1.73
2018-04-24T00:27:03.624Z,2.25
2018-04-24T00:27:37.346Z,1.80
2018-04-24T00:28:11.607Z,2.05
2018-04-24T00:28:45.368Z,2.00
2018-04-24T00:29:19.077Z,2.40
2018-04-24T00:29:52.814Z,2.33
2018-04-24T00:30:27.302Z,2.30
2018-04-24T00:31:01.021Z,2.15
2018-04-24T00:31:35.530Z,2.42
2018-04-24T00:32:10.026Z,2.10
2018-04-24T00:32:45.463Z,2.00
2018-04-24T00:33:19.960Z,1.90
2018-04-24T00:33:53.728Z,2.20
2018-04-24T00:34:27.538Z,1.83
2018-04-24T00:35:01.360Z,2.22
2018-04-24T00:35:35.076Z,2.45
2018-04-24T00:36:08.809Z,2.42
2018-04-24T00:36:42.526Z,1.98
2018-04-24T00:37:17.134Z,2.12
2018-04-24T00:37:51.283Z,2.20
2018-04-24T00:38:25.043Z,2.37
2018-04-24T00:38:58.794Z,1.80
2018-04-24T00:39:32.509Z,1.80
2018-04-24T00:40:06.996Z,2.10
2018-04-24T00:40:40.733Z,2.12
2018-04-24T00:41:14.464Z,1.90
2018-04-24T00:41:48.195Z,1.70
2018-04-24T00:42:22.705Z,1.85
2018-04-24T00:42:57.195Z,1.92
2018-04-24T00:43:30.914Z,2.10
2018-04-24T00:44:04.365Z,1.83
2018-04-24T00:44:38.361Z,2.10
2018-04-24T00:45:12.117Z,2.00
2018-04-24T00:45:45.945Z,1.83
2018-04-24T00:46:20.467Z,1.85
2018-04-24T00:46:54.947Z,2.10
2018-04-24T00:47:28.664Z,1.65
2018-04-24T00:48:03.133Z,1.90
2018-04-24T00:48:36.963Z,2.10
2018-04-24T00:49:10.713Z,1.50
2018-04-24T00:49:44.447Z,2.08
2018-04-24T00:50:18.938Z,1.87
2018-04-24T00:50:52.679Z,2.00
2018-04-24T00:51:26.401Z,1.60
2018-04-24T00:52:00.127Z,1.98
2018-04-24T00:52:33.853Z,1.58
2018-04-24T00:53:18.942Z,1.70
2018-04-24T00:53:52.669Z,1.65
2018-04-24T00:54:27.176Z,1.80
2018-04-24T00:55:01.673Z,1.95
2018-04-24T00:55:35.399Z,2.08
2018-04-24T00:56:09.128Z,2.22
2018-04-24T00:56:42.855Z,1.73
2018-04-24T00:57:16.605Z,2.10
2018-04-24T00:57:50.111Z,1.90
2018-04-24T00:58:23.626Z,1.83
2018-04-24T00:58:58.101Z,1.67
2018-04-24T00:59:32.289Z,1.90
2018-04-24T01:00:05.687Z,1.87
2018-04-24T01:00:39.063Z,1.50
2018-04-24T01:01:12.795Z,1.80
2018-04-24T01:01:47.281Z,1.95
2018-04-24T01:02:21.002Z,1.67
2018-04-24T01:02:54.724Z,2.12
2018-04-24T01:03:28.455Z,1.60
2018-04-24T01:04:02.171Z,1.80
2018-04-24T01:04:36.692Z,2.05
2018-04-24T01:05:10.088Z,1.90
2018-04-24T01:05:43.799Z,2.28
2018-04-24T01:06:17.518Z,1.75
2018-04-24T01:06:51.330Z,1.65
2018-04-24T01:07:25.907Z,2.05
2018-04-24T01:07:59.630Z,1.70
2018-04-24T01:08:34.119Z,1.73
2018-04-24T01:09:07.822Z,1.50
2018-04-24T01:09:42.343Z,2.30
2018-04-24T01:10:16.837Z,1.58
2018-04-24T01:10:50.251Z,1.95
2018-04-24T01:11:23.983Z,1.98
2018-04-24T01:11:57.375Z,1.95
2018-04-24T01:12:31.087Z,2.25
2018-04-24T01:13:05.584Z,1.75
2018-04-24T01:13:39.300Z,1.95
2018-04-24T01:14:13.793Z,1.80
2018-04-24T01:14:48.321Z,1.80
2018-04-24T01:15:22.060Z,1.60
2018-04-24T01:15:55.773Z,2.33
2018-04-24T01:16:30.998Z,1.70
2018-04-24T01:17:04.384Z,1.80
2018-04-24T01:17:38.115Z,1.60
2018-04-24T01:18:11.898Z,2.03
2018-04-24T01:18:45.619Z,1.62
2018-04-24T01:19:19.373Z,1.50
2018-04-24T01:19:53.223Z,1.75
2018-04-24T01:20:26.952Z,2.30
2018-04-24T01:21:01.206Z,1.98
2018-04-24T01:21:34.928Z,2.05
2018-04-24T01:22:08.646Z,1.98
2018-04-24T01:22:42.372Z,2.00
2018-04-24T01:23:16.101Z,1.80
2018-04-24T01:23:49.593Z,1.75
2018-04-24T01:24:24.082Z,1.85
2018-04-24T01:24:57.837Z,1.85
2018-04-24T01:25:31.574Z,1.95
2018-04-24T01:26:04.960Z,2.50
2018-04-24T01:26:38.698Z,2.20
2018-04-24T01:27:12.418Z,2.00
2018-04-24T01:27:46.324Z,2.35
2018-04-24T01:28:20.040Z,2.08
2018-04-24T01:28:54.525Z,2.00
2018-04-24T01:29:28.256Z,2.22
2018-04-24T01:30:02.019Z,2.05
2018-04-24T01:30:35.740Z,2.15
2018-04-24T01:31:09.466Z,2.20
2018-04-24T01:31:43.211Z,2.10
2018-04-24T01:32:17.697Z,2.10
2018-04-24T01:32:51.420Z,2.22
2018-04-24T01:33:25.154Z,1.92
2018-04-24T01:33:58.899Z,2.08
2018-04-24T01:34:32.647Z,1.80
2018-04-24T01:35:06.404Z,2.08
2018-04-24T01:35:40.131Z,2.20
2018-04-24T01:36:13.858Z,2.10
2018-04-24T01:36:48.362Z,2.40
2018-04-24T01:37:22.838Z,1.90
2018-04-24T01:37:56.570Z,1.87
2018-04-24T01:38:30.284Z,2.00
2018-04-24T01:39:03.109Z,1.87
2018-04-24T01:39:36.818Z,2.30
2018-04-24T01:40:11.351Z,2.08
2018-04-24T01:40:45.056Z,2.10
2018-04-24T01:41:18.775Z,1.92
2018-04-24T01:41:52.149Z,2.53
2018-04-24T01:42:25.860Z,2.00
2018-04-24T01:42:59.571Z,1.80
2018-04-24T01:43:34.064Z,1.90
2018-04-24T01:44:08.546Z,2.20
2018-04-24T01:44:42.270Z,2.08
2018-04-24T01:45:16.777Z,2.00
2018-04-24T01:45:51.272Z,2.15
2018-04-24T01:46:24.984Z,2.08
2018-04-24T01:46:59.483Z,2.12
2018-04-24T01:47:34.046Z,2.00
2018-04-24T01:48:07.757Z,2.37
2018-04-24T01:48:41.657Z,2.22
2018-04-24T01:49:15.382Z,2.42
2018-04-24T01:49:49.539Z,2.10
2018-04-24T01:50:23.302Z,2.33
2018-04-24T01:50:57.023Z,2.10
2018-04-24T01:51:30.745Z,2.20
2018-04-24T01:52:05.245Z,2.60
2018-04-24T01:52:38.950Z,2.03
2018-04-24T01:53:13.100Z,2.12
2018-04-24T01:53:46.498Z,1.90
2018-04-24T01:54:20.216Z,2.53
2018-04-24T01:54:54.696Z,1.90
2018-04-24T01:55:28.464Z,2.00
2018-04-24T01:56:02.184Z,1.85
2018-04-24T01:56:35.922Z,1.87
2018-04-24T01:57:09.688Z,2.25
2018-04-24T01:57:44.166Z,2.25
2018-04-24T01:58:17.886Z,2.00
2018-04-24T01:58:52.366Z,2.28
2018-04-24T01:59:26.084Z,2.08
2018-04-24T02:00:00.576Z,2.80
2018-04-24T02:00:34.318Z,1.95
2018-04-24T02:01:08.076Z,2.08
2018-04-24T02:01:42.558Z,1.98
2018-04-24T02:02:16.285Z,2.20
2018-04-24T02:02:50.771Z,2.00
2018-04-24T02:03:24.808Z,2.20
2018-04-24T02:03:58.515Z,2.58
2018-04-24T02:04:32.238Z,2.33
2018-04-24T02:05:05.958Z,2.53
2018-04-24T02:05:40.471Z,1.90
2018-04-24T02:06:14.198Z,2.08
2018-04-24T02:06:47.928Z,1.80
2018-04-24T02:07:21.652Z,2.22
2018-04-24T02:07:55.370Z,2.55
2018-04-24T02:08:29.096Z,2.90
2018-04-24T02:09:02.780Z,2.60
2018-04-24T02:09:36.508Z,2.30
2018-04-24T02:10:10.760Z,2.03
2018-04-24T02:10:44.559Z,3.05
2018-04-24T02:11:17.947Z,2.40
2018-04-24T02:11:51.660Z,2.30
2018-04-24T02:12:25.378Z,1.87
2018-04-24T02:12:59.103Z,2.55
2018-04-24T02:13:32.832Z,2.20
2018-04-24T02:14:06.317Z,2.00
2018-04-24T02:14:40.032Z,2.25
2018-04-24T02:15:13.744Z,2.10
2018-04-24T02:15:47.488Z,2.50
2018-04-24T02:16:21.203Z,2.65
2018-04-24T02:16:54.921Z,2.15
2018-04-24T02:17:28.647Z,2.80
2018-04-24T02:18:02.369Z,2.17
2018-04-24T02:18:36.872Z,2.25
2018-04-24T02:19:11.341Z,2.70
2018-04-24T02:19:45.070Z,2.30
2018-04-24T02:20:19.549Z,2.50
2018-04-24T02:20:53.297Z,2.45
2018-04-24T02:21:27.052Z,2.20
2018-04-24T02:22:00.753Z,2.70
2018-04-24T02:22:35.233Z,2.28
2018-04-24T02:23:09.150Z,2.40
2018-04-24T02:23:44.395Z,2.47
2018-04-24T02:24:18.120Z,2.60
2018-04-24T02:24:51.921Z,2.53
2018-04-24T02:25:27.258Z,2.95
2018-04-24T02:26:01.026Z,2.40
2018-04-24T02:26:34.764Z,2.53
2018-04-24T02:27:08.500Z,2.35
2018-04-24T02:27:42.229Z,2.85
2018-04-24T02:28:15.958Z,2.10
2018-04-24T02:28:49.693Z,2.75
2018-04-24T02:29:23.420Z,2.60
2018-04-24T02:29:57.926Z,2.37
2018-04-24T02:30:31.646Z,2.30
2018-04-24T02:31:04.732Z,2.67
2018-04-24T02:31:38.672Z,2.83
2018-04-24T02:32:12.154Z,2.75
2018-04-24T02:32:45.636Z,2.40
2018-04-24T02:33:19.353Z,2.90
2018-04-24T02:33:53.068Z,3.15
2018-04-24T02:34:26.795Z,2.97
2018-04-24T02:35:00.508Z,2.28
2018-04-24T02:35:34.214Z,2.75
2018-04-24T02:36:07.961Z,2.92
2018-04-24T02:36:41.355Z,3.12
2018-04-24T02:37:15.076Z,3.20
2018-04-24T02:37:49.566Z,3.00
2018-04-24T02:38:23.105Z,2.92
2018-04-24T02:38:56.818Z,2.97
2018-04-24T02:39:31.068Z,2.77
2018-04-24T02:40:04.128Z,2.50
2018-04-24T02:40:37.832Z,2.90
2018-04-24T02:41:11.594Z,2.97
2018-04-24T02:41:45.324Z,2.90
2018-04-24T02:42:19.832Z,3.00
2018-04-24T02:42:53.571Z,3.05
2018-04-24T02:43:27.303Z,3.30
2018-04-24T02:44:01.047Z,2.90
2018-04-24T02:44:34.786Z,3.08
2018-04-24T02:45:08.509Z,3.50
2018-04-24T02:45:41.886Z,2.53
2018-04-24T02:46:15.661Z,3.20
2018-04-24T02:46:50.148Z,3.20
2018-04-24T02:47:23.862Z,2.80
2018-04-24T02:47:58.358Z,2.85
2018-04-24T02:48:32.080Z,3.25
2018-04-24T02:49:05.798Z,3.50
2018-04-24T02:49:39.538Z,2.33
2018-04-24T02:50:14.031Z,3.53
2018-04-24T02:50:47.752Z,2.70
2018-04-24T02:51:21.506Z,3.37
2018-04-24T02:51:55.226Z,3.20
2018-04-24T02:52:29.715Z,3.37
2018-04-24T02:53:03.110Z,3.50
2018-04-24T02:53:37.256Z,3.20
2018-04-24T02:54:10.986Z,3.25
2018-04-24T02:54:44.717Z,2.75
2018-04-24T02:55:18.464Z,3.00
2018-04-24T02:55:52.180Z,3.03
2018-04-24T02:56:26.702Z,3.00
2018-04-24T02:57:00.074Z,3.15
2018-04-24T02:57:34.560Z,2.70
2018-04-24T02:58:08.284Z,3.70
2018-04-24T02:58:42.738Z,3.25
2018-04-24T02:59:16.462Z,3.03
2018-04-24T02:59:50.953Z,3.37
2018-04-24T03:00:24.672Z,3.03
2018-04-24T03:00:59.169Z,3.70
2018-04-24T03:01:33.369Z,2.40
2018-04-24T03:02:07.866Z,3.05
2018-04-24T03:02:42.376Z,2.87
2018-04-24T03:03:16.081Z,3.53
2018-04-24T03:03:49.805Z,3.40
2018-04-24T03:04:23.522Z,3.30
2018-04-24T03:04:57.251Z,3.40
2018-04-24T03:05:31.745Z,3.60
2018-04-24T03:06:05.129Z,3.58
2018-04-24T03:06:38.890Z,3.75
2018-04-24T03:07:12.605Z,3.17
2018-04-24T03:07:46.325Z,3.70
2018-04-24T03:08:20.823Z,3.70
2018-04-24T03:08:55.333Z,4.20
2018-04-24T03:09:29.484Z,3.70
2018-04-24T03:10:03.203Z,3.78
2018-04-24T03:10:36.926Z,3.80
2018-04-24T03:11:11.063Z,4.37
2018-04-24T03:11:44.844Z,3.60
2018-04-24T03:12:19.521Z,3.95
2018-04-24T03:12:54.011Z,3.53
2018-04-24T03:13:27.729Z,3.50
2018-04-24T03:14:02.209Z,4.10
2018-04-24T03:14:35.590Z,4.00
2018-04-24T03:15:09.336Z,3.80
2018-04-24T03:15:43.043Z,4.20
2018-04-24T03:16:16.777Z,3.95
2018-04-24T03:16:49.869Z,4.15
2018-04-24T03:17:24.351Z,4.18
2018-04-24T03:17:58.075Z,4.18
2018-04-24T03:18:31.789Z,4.43
2018-04-24T03:19:05.549Z,4.75
2018-04-24T03:19:40.031Z,3.85
2018-04-24T03:20:13.753Z,3.67
2018-04-24T03:20:47.241Z,4.53
2018-04-24T03:21:21.709Z,4.62
2018-04-24T03:21:55.465Z,4.70
2018-04-24T03:22:29.185Z,3.72
2018-04-24T03:23:02.918Z,3.70
2018-04-24T03:23:37.427Z,4.18
2018-04-24T03:24:11.897Z,4.35
2018-04-24T03:24:45.628Z,4.07
2018-04-24T03:25:19.369Z,4.72
2018-04-24T03:25:53.093Z,4.57
2018-04-24T03:26:27.602Z,4.62
2018-04-24T03:27:02.127Z,4.55
2018-04-24T03:27:36.598Z,4.97
2018-04-24T03:28:10.132Z,4.37
2018-04-24T03:28:43.851Z,4.05
2018-04-24T03:29:17.570Z,4.45
2018-04-24T03:29:51.304Z,4.57
2018-04-24T03:30:25.024Z,3.83
2018-04-24T03:30:58.760Z,4.15
2018-04-24T03:31:32.469Z,4.37
2018-04-24T03:32:06.218Z,3.67
2018-04-24T03:32:39.934Z,4.95
2018-04-24T03:33:14.426Z,4.18
2018-04-24T03:33:48.143Z,3.97
2018-04-24T03:34:22.629Z,4.78
2018-04-24T03:34:56.334Z,4.50
2018-04-24T03:35:30.814Z,4.22
2018-04-24T03:36:04.194Z,4.22
2018-04-24T03:36:38.232Z,4.55
2018-04-24T03:37:12.734Z,4.25
2018-04-24T03:37:47.222Z,4.90
2018-04-24T03:38:20.946Z,4.85
2018-04-24T03:38:55.412Z,4.43
2018-04-24T03:39:29.146Z,5.22
2018-04-24T03:40:02.872Z,4.68
2018-04-24T03:40:36.598Z,4.18
2018-04-24T03:41:10.308Z,3.95
2018-04-24T03:41:44.801Z,4.03
2018-04-24T03:42:18.547Z,4.57
2018-04-24T03:42:52.257Z,4.47
2018-04-24T03:43:25.996Z,4.05
2018-04-24T03:44:00.143Z,4.75
2018-04-24T03:44:33.793Z,5.10
2018-04-24T03:45:07.513Z,4.25
2018-04-24T03:45:41.009Z,4.05
2018-04-24T03:46:15.232Z,4.70
2018-04-24T03:46:48.961Z,3.95
2018-04-24T03:47:22.711Z,4.03
2018-04-24T03:47:56.194Z,4.20
2018-04-24T03:48:30.130Z,4.80
2018-04-24T03:49:03.847Z,4.20
2018-04-24T03:49:37.241Z,4.78
2018-04-24T03:50:10.974Z,4.68
2018-04-24T03:50:45.489Z,5.00
2018-04-24T03:51:19.991Z,4.20
2018-04-24T03:51:54.461Z,4.70
2018-04-24T03:52:28.202Z,4.95
2018-04-24T03:53:01.645Z,3.93
2018-04-24T03:53:35.356Z,4.20
2018-04-24T03:54:09.080Z,4.37
2018-04-24T03:54:42.805Z,4.20
2018-04-24T03:55:16.524Z,4.85
2018-04-24T03:55:50.249Z,4.97
2018-04-24T03:56:23.959Z,4.60
2018-04-24T03:56:57.761Z,4.57
2018-04-24T03:57:31.538Z,4.85
2018-04-24T03:58:04.663Z,5.67
2018-04-24T03:58:38.116Z,5.07
2018-04-24T03:59:11.836Z,4.37
2018-04-24T03:59:45.551Z,4.82
2018-04-24T04:00:20.053Z,4.35
2018-04-24T04:00:54.549Z,4.97
2018-04-24T04:01:28.268Z,4.45
2018-04-24T04:02:01.985Z,4.50
2018-04-24T04:02:35.736Z,4.10
2018-04-24T04:03:10.227Z,4.95
2018-04-24T04:03:43.953Z,4.07
2018-04-24T04:04:17.402Z,4.60
2018-04-24T04:04:51.121Z,4.32
2018-04-24T04:05:25.599Z,4.15
2018-04-24T04:05:59.311Z,4.03
2018-04-24T04:06:33.790Z,4.87
2018-04-24T04:07:07.513Z,4.40
2018-04-24T04:07:42.092Z,4.78
2018-04-24T04:08:16.746Z,4.50
2018-04-24T04:08:51.221Z,4.53
2018-04-24T04:09:24.945Z,4.62
2018-04-24T04:09:58.684Z,4.85
2018-04-24T04:10:32.413Z,5.00
2018-04-24T04:11:06.670Z,4.68
2018-04-24T04:11:40.393Z,4.10
2018-04-24T04:12:14.111Z,4.75
2018-04-24T04:12:47.887Z,3.70
2018-04-24T04:13:22.396Z,4.30
2018-04-24T04:13:56.876Z,4.10
2018-04-24T04:14:30.611Z,3.87
2018-04-24T04:15:04.424Z,4.35
2018-04-24T04:15:38.196Z,3.62
2018-04-24T04:16:11.927Z,3.80
2018-04-24T04:16:45.404Z,3.95
2018-04-24T04:17:30.278Z,4.78
2018-04-24T04:18:15.201Z,3.95
2018-04-24T04:19:00.091Z,4.28
2018-04-24T04:19:47.099Z,4.70
2018-04-24T04:20:32.025Z,4.40
2018-04-24T04:21:16.896Z,4.43
2018-04-24T04:22:01.795Z,3.80
2018-04-24T04:22:46.666Z,4.65
2018-04-24T04:23:31.491Z,4.07
2018-04-24T04:24:16.399Z,4.57
2018-04-24T04:24:49.509Z,4.18
2018-04-24T04:25:24.003Z,4.10
2018-04-24T04:25:57.759Z,4.00
2018-04-24T04:26:31.197Z,4.45
2018-04-24T04:27:05.710Z,4.20
2018-04-24T04:27:40.198Z,4.60
2018-04-24T04:28:13.908Z,4.05
2018-04-24T04:28:48.424Z,4.00
2018-04-24T04:29:22.148Z,4.57
2018-04-24T04:29:55.637Z,4.43
2018-04-24T04:30:29.085Z,4.40
2018-04-24T04:31:03.566Z,4.72
2018-04-24T04:31:37.338Z,3.62
2018-04-24T04:32:11.111Z,4.20
2018-04-24T04:32:44.876Z,3.90
2018-04-24T04:33:18.612Z,4.22
2018-04-24T04:33:52.351Z,4.10
2018-04-24T04:34:26.103Z,5.60
2018-04-24T04:34:59.570Z,4.60
2018-04-24T04:35:33.287Z,4.78
2018-04-24T04:36:06.777Z,4.07
2018-04-24T04:36:40.500Z,2.90
2018-04-24T04:37:13.749Z,4.07
2018-04-24T04:37:47.060Z,3.80
2018-04-24T04:38:20.653Z,4.20
2018-04-24T04:38:54.140Z,3.40
2018-04-24T04:39:27.782Z,3.70
2018-04-24T04:40:01.499Z,3.95
2018-04-24T04:40:35.981Z,3.47
2018-04-24T04:41:09.763Z,3.42
2018-04-24T04:41:44.177Z,3.50
2018-04-24T04:42:17.923Z,3.75
2018-04-24T04:42:52.007Z,4.10
2018-04-24T04:43:25.468Z,3.80
2018-04-24T04:43:59.994Z,3.22
2018-04-24T04:44:33.741Z,3.70
2018-04-24T04:45:07.570Z,3.85
2018-04-24T04:45:42.083Z,4.30
2018-04-24T04:46:15.535Z,3.30
2018-04-24T04:46:49.269Z,3.60
2018-04-24T04:47:22.997Z,3.72
2018-04-24T04:47:56.742Z,3.70
2018-04-24T04:48:30.633Z,3.25
2018-04-24T04:49:04.477Z,3.72
2018-04-24T04:49:38.707Z,3.30
2018-04-24T04:50:13.224Z,3.60
2018-04-24T04:50:46.945Z,3.97
2018-04-24T04:51:20.686Z,3.30
2018-04-24T04:51:54.413Z,3.15
2018-04-24T04:52:28.905Z,3.40
2018-04-24T04:53:02.630Z,3.15
2018-04-24T04:53:36.349Z,2.90
2018-04-24T04:54:10.108Z,3.10
2018-04-24T04:54:43.845Z,3.80
2018-04-24T04:55:17.571Z,3.70
2018-04-24T04:55:52.080Z,3.42
2018-04-24T04:56:26.567Z,3.30
2018-04-24T04:57:00.298Z,3.62
2018-04-24T04:57:34.044Z,3.42
2018-04-24T04:58:08.271Z,3.30
2018-04-24T04:58:41.734Z,3.90
2018-04-24T04:59:15.500Z,3.28
2018-04-24T04:59:49.263Z,3.85
2018-04-24T05:00:23.013Z,3.20
2018-04-24T05:00:56.740Z,3.58
2018-04-24T05:01:30.514Z,3.87
2018-04-24T05:02:05.007Z,3.35
2018-04-24T05:02:38.736Z,3.37
2018-04-24T05:03:12.180Z,3.67
2018-04-24T05:03:45.907Z,3.20
2018-04-24T05:04:19.685Z,3.87
2018-04-24T05:04:54.232Z,3.15
2018-04-24T05:05:27.847Z,3.30
2018-04-24T05:06:01.571Z,3.85
2018-04-24T05:06:36.338Z,3.47
2018-04-24T05:07:10.078Z,3.40
2018-04-24T05:07:43.530Z,4.03
2018-04-24T05:08:17.260Z,3.60
2018-04-24T05:08:50.735Z,3.30
2018-04-24T05:09:25.276Z,3.87
2018-04-24T05:09:59.027Z,3.65
2018-04-24T05:10:33.517Z,4.03
2018-04-24T05:11:07.241Z,4.05
2018-04-24T05:11:41.725Z,3.42
2018-04-24T05:12:15.453Z,3.70
2018-04-24T05:12:48.922Z,3.30
2018-04-24T05:13:22.405Z,3.50
2018-04-24T05:13:56.918Z,3.62
2018-04-24T05:14:30.423Z,3.33
2018-04-24T05:15:03.546Z,3.63
2018-04-24T05:15:37.287Z,3.65
2018-04-24T05:16:11.001Z,3.55
2018-04-24T05:16:44.753Z,3.72
2018-04-24T05:17:19.263Z,3.80
2018-04-24T05:17:52.727Z,4.53
2018-04-24T05:18:26.455Z,3.92
2018-04-24T05:19:00.189Z,4.00
2018-04-24T05:19:33.962Z,3.72
2018-04-24T05:20:07.460Z,3.93
2018-04-24T05:20:42.115Z,4.18
2018-04-24T05:21:16.602Z,4.32
2018-04-24T05:21:50.330Z,3.87
2018-04-24T05:22:24.065Z,4.22
2018-04-24T05:22:57.792Z,3.55
2018-04-24T05:23:32.305Z,3.42
2018-04-24T05:24:06.782Z,4.20
2018-04-24T05:24:40.573Z,4.37
2018-04-24T05:25:14.249Z,4.10
2018-04-24T05:25:48.144Z,3.80
2018-04-24T05:26:21.886Z,3.90
2018-04-24T05:26:56.393Z,3.95
2018-04-24T05:27:30.155Z,3.45
2018-04-24T05:28:03.602Z,3.70
2018-04-24T05:28:37.081Z,3.73
2018-04-24T05:29:10.534Z,3.73
2018-04-24T05:29:44.024Z,3.70
2018-04-24T05:30:17.486Z,3.80
2018-04-24T05:30:50.940Z,4.47
2018-04-24T05:31:24.692Z,3.83
2018-04-24T05:31:58.428Z,4.45
2018-04-24T05:32:32.172Z,4.20
2018-04-24T05:33:05.906Z,3.90
2018-04-24T05:33:39.642Z,4.25
2018-04-24T05:34:14.350Z,4.65
2018-04-24T05:34:48.872Z,4.40
2018-04-24T05:35:22.614Z,4.07
2018-04-24T05:35:56.838Z,3.97
2018-04-24T05:36:30.572Z,5.18
2018-04-24T05:37:04.038Z,3.50
2018-04-24T05:37:38.536Z,4.18
2018-04-24T05:38:13.022Z,4.03
2018-04-24T05:38:46.753Z,4.40
2018-04-24T05:39:21.231Z,4.32
2018-04-24T05:39:54.858Z,4.00
2018-04-24T05:40:28.323Z,4.97
2018-04-24T05:41:01.815Z,5.00
2018-04-24T05:41:35.287Z,4.73
2018-04-24T05:42:09.786Z,4.20
2018-04-24T05:42:43.519Z,4.68
2018-04-24T05:43:16.963Z,4.73
2018-04-24T05:43:50.696Z,5.18
2018-04-24T05:44:24.949Z,4.67
2018-04-24T05:44:58.602Z,4.47
2018-04-24T05:45:32.344Z,8.80
2018-04-24T05:46:05.792Z,4.80
2018-04-24T05:46:39.511Z,4.35
2018-04-24T05:47:13.248Z,5.05
2018-04-24T05:47:46.972Z,4.90
2018-04-24T05:48:20.240Z,4.30
2018-04-24T05:48:54.477Z,4.50
2018-04-24T05:49:27.943Z,5.23
2018-04-24T05:50:01.697Z,4.40
2018-04-24T05:50:35.183Z,5.27
2018-04-24T05:51:08.619Z,4.57
2018-04-24T05:51:42.073Z,4.90
2018-04-24T05:52:15.814Z,4.80
2018-04-24T05:52:49.310Z,4.60
2018-04-24T05:53:23.900Z,4.95
2018-04-24T05:53:58.401Z,4.60
2018-04-24T05:54:32.904Z,4.95
2018-04-24T05:55:06.510Z,4.97
2018-04-24T05:55:39.962Z,4.40
2018-04-24T05:56:13.724Z,4.50
2018-04-24T05:56:47.368Z,5.37
2018-04-24T05:57:20.829Z,4.90
2018-04-24T05:57:54.634Z,5.50
2018-04-24T05:58:28.253Z,5.10
2018-04-24T05:59:01.716Z,5.47
2018-04-24T05:59:35.182Z,4.90
2018-04-24T06:00:08.333Z,5.20
2018-04-24T06:00:42.571Z,4.70
2018-04-24T06:01:16.307Z,5.43
2018-04-24T06:01:50.042Z,5.60
2018-04-24T06:02:23.772Z,5.70
2018-04-24T06:02:58.388Z,5.67
2018-04-24T06:03:31.845Z,4.77
2018-04-24T06:04:05.305Z,5.33
2018-04-24T06:04:39.042Z,5.55
2018-04-24T06:05:12.530Z,5.40
2018-04-24T06:05:46.005Z,6.03
2018-04-24T06:06:19.467Z,5.10
2018-04-24T06:06:52.932Z,5.57
2018-04-24T06:07:27.159Z,5.73
2018-04-24T06:08:00.618Z,7.10
2018-04-24T06:08:34.908Z,5.57
2018-04-24T06:09:08.525Z,5.70
2018-04-24T06:09:42.250Z,5.80
2018-04-24T06:10:15.721Z,6.07
2018-04-24T06:10:49.189Z,6.10
2018-04-24T06:11:22.669Z,6.27
2018-04-24T06:11:56.150Z,5.73
2018-04-24T06:12:29.627Z,6.40
2018-04-24T06:13:03.887Z,6.60
2018-04-24T06:13:37.022Z,7.03
2018-04-24T06:14:10.485Z,6.73
2018-04-24T06:14:44.703Z,7.00
2018-04-24T06:15:18.971Z,7.17
2018-04-24T06:15:52.440Z,6.53
2018-04-24T06:16:25.904Z,6.50
2018-04-24T06:16:59.371Z,7.30
2018-04-24T06:17:32.843Z,6.43
2018-04-24T06:18:07.070Z,7.00
2018-04-24T06:18:40.535Z,7.50
2018-04-24T06:19:14.015Z,7.30
2018-04-24T06:19:48.248Z,7.73
2018-04-24T06:20:21.731Z,11.37
2018-04-24T06:20:55.197Z,6.67
2018-04-24T06:21:28.657Z,7.00
2018-04-24T06:22:02.123Z,7.40
2018-04-24T06:22:35.649Z,7.30
2018-04-24T06:23:09.242Z,6.90
2018-04-24T06:23:42.704Z,6.50
2018-04-24T06:24:16.973Z,6.93
2018-04-24T06:24:50.448Z,6.77
2018-04-24T06:25:23.956Z,7.90
2018-04-24T06:25:57.414Z,7.87
2018-04-24T06:26:30.882Z,7.60
2018-04-24T06:27:04.336Z,7.83
2018-04-24T06:27:38.590Z,8.23
2018-04-24T06:28:12.069Z,7.20
2018-04-24T06:28:45.582Z,7.60
2018-04-24T06:29:19.197Z,8.80
2018-04-24T06:29:53.409Z,7.67
2018-04-24T06:30:27.666Z,8.00
2018-04-24T06:31:01.598Z,7.57
2018-04-24T06:31:35.833Z,8.17
2018-04-24T06:32:08.974Z,8.40
2018-04-24T06:32:43.196Z,7.30
2018-04-24T06:33:16.661Z,7.50
2018-04-24T06:33:50.877Z,7.70
2018-04-24T06:34:24.363Z,7.70
2018-04-24T06:34:58.591Z,7.43
2018-04-24T06:35:32.097Z,6.80
2018-04-24T06:36:05.627Z,7.93
2018-04-24T06:36:39.215Z,8.50
2018-04-24T06:37:13.469Z,9.20
2018-04-24T06:37:46.957Z,7.50
2018-04-24T06:38:20.436Z,8.57
2018-04-24T06:38:53.882Z,7.87
2018-04-24T06:39:28.109Z,9.33
2018-04-24T06:40:01.578Z,7.63
2018-04-24T06:40:35.073Z,7.73
2018-04-24T06:41:09.345Z,8.13
2018-04-24T06:41:43.575Z,8.43
2018-04-24T06:42:17.098Z,8.60
2018-04-24T06:42:50.669Z,8.30
2018-04-24T06:43:24.137Z,8.33
2018-04-24T06:43:57.257Z,7.97
2018-04-24T06:44:30.718Z,7.57
2018-04-24T06:45:03.848Z,8.50
2018-04-24T06:45:37.345Z,7.90
2018-04-24T06:46:10.803Z,8.07
2018-04-24T06:46:45.031Z,7.80
2018-04-24T06:47:18.493Z,9.50
2018-04-24T06:47:52.038Z,8.30
2018-04-24T06:48:25.645Z,9.07
2018-04-24T06:48:59.085Z,9.10
2018-04-24T06:49:32.544Z,8.43
2018-04-24T06:50:06.799Z,8.60
2018-04-24T06:50:40.328Z,9.10
2018-04-24T06:51:14.571Z,8.93
2018-04-24T06:51:48.027Z,9.03
2018-04-24T06:52:22.259Z,8.13
2018-04-24T06:52:55.845Z,9.67
2018-04-24T06:53:29.310Z,9.10
2018-04-24T06:54:02.799Z,10.03
2018-04-24T06:54:36.255Z,8.70
2018-04-24T06:55:10.480Z,8.60
2018-04-24T06:55:43.977Z,9.03
2018-04-24T06:56:17.447Z,9.40
2018-04-24T06:56:50.917Z,8.33
2018-04-24T06:57:25.135Z,9.30
2018-04-24T06:57:59.364Z,8.40
2018-04-24T06:58:32.829Z,7.57
2018-04-24T06:59:06.289Z,8.57
2018-04-24T06:59:40.509Z,9.33
2018-04-24T07:00:14.738Z,7.47
2018-04-24T07:00:48.248Z,8.20
2018-04-24T07:01:21.703Z,8.77
2018-04-24T07:01:55.167Z,8.17
2018-04-24T07:02:28.644Z,9.30
2018-04-24T07:03:02.873Z,8.27
2018-04-24T07:03:36.324Z,8.63
2018-04-24T07:04:10.561Z,8.87
2018-04-24T07:04:44.028Z,7.73
2018-04-24T07:05:17.483Z,8.50
2018-04-24T07:05:50.981Z,7.97
2018-04-24T07:06:25.252Z,8.33
2018-04-24T07:06:58.867Z,8.00
2018-04-24T07:07:33.111Z,8.90
2018-04-24T07:08:06.565Z,8.10
2018-04-24T07:08:40.027Z,9.20
2018-04-24T07:09:13.465Z,7.60
2018-04-24T07:09:46.927Z,8.87
2018-04-24T07:10:20.406Z,8.50
2018-04-24T07:10:54.675Z,8.50
2018-04-24T07:11:28.127Z,7.83
2018-04-24T07:12:01.574Z,7.90
2018-04-24T07:12:35.807Z,8.53
2018-04-24T07:13:09.264Z,8.60
2018-04-24T07:13:42.729Z,7.53
2018-04-24T07:14:16.181Z,8.87
2018-04-24T07:14:49.637Z,8.07
2018-04-24T07:15:23.099Z,7.73
2018-04-24T07:15:57.433Z,8.03
2018-04-24T07:16:30.897Z,8.30
2018-04-24T07:17:04.359Z,7.90
2018-04-24T07:17:38.582Z,7.17
2018-04-24T07:18:12.051Z,8.40
2018-04-24T07:18:46.273Z,7.83
2018-04-24T07:19:19.767Z,7.07
2018-04-24T07:19:53.219Z,7.70
2018-04-24T07:20:27.458Z,7.70
2018-04-24T07:21:00.945Z,8.30
2018-04-24T07:21:34.389Z,7.97
2018-04-24T07:22:08.642Z,9.47
2018-04-24T07:22:42.249Z,8.13
2018-04-24T07:23:15.703Z,8.03
2018-04-24T07:23:49.165Z,7.50
2018-04-24T07:24:23.397Z,7.10
2018-04-24T07:24:56.853Z,7.53
2018-04-24T07:25:31.082Z,8.27
2018-04-24T07:26:04.592Z,7.07
2018-04-24T07:26:38.037Z,7.63
2018-04-24T07:27:11.559Z,7.33
2018-04-24T07:27:45.939Z,7.67
2018-04-24T07:28:19.389Z,8.50
2018-04-24T07:28:53.609Z,7.30
2018-04-24T07:29:27.061Z,8.07
2018-04-24T07:30:00.517Z,7.80
2018-04-24T07:30:33.978Z,7.30
2018-04-24T07:31:07.453Z,7.33
2018-04-24T07:31:40.897Z,7.83
2018-04-24T07:32:14.362Z,7.30
2018-04-24T07:32:47.840Z,8.07
2018-04-24T07:33:21.478Z,7.20
2018-04-24T07:33:55.702Z,7.10
2018-04-24T07:34:29.164Z,7.07
2018-04-24T07:35:03.389Z,7.43
2018-04-24T07:35:36.871Z,7.87
2018-04-24T07:36:10.368Z,7.13
2018-04-24T07:36:43.857Z,8.67
2018-04-24T07:37:17.336Z,7.40
2018-04-24T07:37:50.798Z,7.77
2018-04-24T07:38:24.281Z,7.47
2018-04-24T07:38:58.518Z,8.67
2018-04-24T07:39:31.988Z,7.70
2018-04-24T07:40:05.652Z,8.30
2018-04-24T07:40:39.881Z,8.23
2018-04-24T07:41:13.348Z,6.60
2018-04-24T07:41:46.806Z,7.33
2018-04-24T07:42:20.267Z,7.30
2018-04-24T07:42:53.756Z,8.37
2018-04-24T07:43:27.210Z,8.33
2018-04-24T07:44:00.726Z,7.40
2018-04-24T07:44:34.189Z,8.53
2018-04-24T07:45:07.652Z,8.53
2018-04-24T07:45:41.105Z,7.20
2018-04-24T07:46:14.602Z,7.50
2018-04-24T07:46:48.930Z,7.37
2018-04-24T07:47:22.496Z,7.00
2018-04-24T07:47:56.716Z,7.93
2018-04-24T07:48:30.179Z,7.83
2018-04-24T07:49:04.403Z,8.30
2018-04-24T07:49:37.858Z,7.87
2018-04-24T07:50:11.337Z,9.10
2018-04-24T07:50:44.995Z,8.77